Time;durP1;ratioP1;P1;durP2;ratioP2;P2;SDS_P1;SDS_P2;PMS_P1;PMS_P2;Temp;Humidity;BMP_temperature;BMP_pressure;BME280_temperature;BME280_humidity;BME280_pressure;Samples;Min_cycle;Max_cycle;Signal;HPM_P1;HPM_P2
2021/10/30 00:00:23;;;;;;;90.63;42.22;;;;;;;;;;5123447;27;20075;-83
2021/10/30 00:02:50;;;;;;;87.78;43.30;;;;;;;;;;5105014;27;20491;-83
2021/10/30 00:05:18;;;;;;;88.95;41.90;;;;;;;;;;5117802;27;20354;-85
2021/10/30 00:07:45;;;;;;;87.07;42.58;;;;;;;;;;5123647;27;20071;-84
2021/10/30 00:10:12;;;;;;;88.97;41.50;;;;;;;;;;5103359;28;20123;-84
2021/10/30 00:12:41;;;;;;;89.68;42.63;;;;;;;;;;5099029;27;20106;-83
2021/10/30 00:15:09;;;;;;;94.90;42.75;;;;;;;;;;5115322;27;20131;-83
2021/10/30 00:17:36;;;;;;;87.32;41.10;;;;;;;;;;5115296;27;20467;-84
2021/10/30 00:20:03;;;;;;;99.15;44.47;;;;;;;;;;5133175;27;20133;-85
2021/10/30 00:22:31;;;;;;;89.32;41.97;;;;;;;;;;5133980;27;20122;-84
2021/10/30 00:24:58;;;;;;;81.75;41.15;;;;;;;;;;5106834;28;20138;-84
2021/10/30 00:27:26;;;;;;;88.53;42.63;;;;;;;;;;5126241;27;20118;-84
2021/10/30 00:29:53;;;;;;;93.50;42.42;;;;;;;;;;5124507;27;20130;-84
2021/10/30 00:32:20;;;;;;;93.82;42.38;;;;;;;;;;5137567;27;20054;-84
2021/10/30 00:34:47;;;;;;;88.32;42.60;;;;;;;;;;5119968;27;20562;-84
2021/10/30 00:37:15;;;;;;;95.70;43.50;;;;;;;;;;5114767;27;20052;-84
2021/10/30 00:39:42;;;;;;;96.25;44.42;;;;;;;;;;5116919;27;20138;-84
2021/10/30 00:42:09;;;;;;;106.20;48.40;;;;;;;;;;5110900;27;20079;-84
2021/10/30 00:44:36;;;;;;;102.57;46.78;;;;;;;;;;5111456;27;20479;-84
2021/10/30 00:47:04;;;;;;;99.57;45.65;;;;;;;;;;5109183;27;20159;-84
2021/10/30 00:49:32;;;;;;;84.10;42.08;;;;;;;;;;5120483;27;20093;-84
2021/10/30 00:52:00;;;;;;;96.75;41.90;;;;;;;;;;5094905;28;20708;-84
2021/10/30 00:54:27;;;;;;;83.38;39.65;;;;;;;;;;5122377;27;20086;-84
2021/10/30 00:56:57;;;;;;;87.82;38.50;;;;;;;;;;5107533;27;20051;-84
2021/10/30 00:59:24;;;;;;;94.28;44.78;;;;;;;;;;5127969;27;20122;-84
2021/10/30 01:01:51;;;;;;;103.93;47.45;;;;;;;;;;5110038;27;20126;-84
2021/10/30 01:04:19;;;;;;;94.38;43.28;;;;;;;;;;5101108;27;20046;-83
2021/10/30 01:06:47;;;;;;;88.93;42.03;;;;;;;;;;5107696;27;20047;-84
2021/10/30 01:09:15;;;;;;;91.30;42.85;;;;;;;;;;5124203;27;20070;-84
2021/10/30 01:11:42;;;;;;;83.10;40.38;;;;;;;;;;5114465;27;20055;-83
2021/10/30 01:14:09;;;;;;;84.20;40.70;;;;;;;;;;5106164;27;20142;-84
2021/10/30 01:16:37;;;;;;;86.60;41.50;;;;;;;;;;5114262;27;20886;-84
2021/10/30 01:19:05;;;;;;;83.38;40.53;;;;;;;;;;5113168;27;20075;-83
2021/10/30 01:21:33;;;;;;;86.95;38.20;;;;;;;;;;5104195;28;20079;-84
2021/10/30 01:24:02;;;;;;;83.50;39.45;;;;;;;;;;5104551;27;20075;-83
2021/10/30 01:26:30;;;;;;;79.65;37.13;;;;;;;;;;5131808;27;20055;-83
2021/10/30 01:28:59;;;;;;;78.70;37.35;;;;;;;;;;5131315;27;20125;-83
2021/10/30 01:31:27;;;;;;;81.53;37.38;;;;;;;;;;5133152;27;20134;-83
2021/10/30 01:33:54;;;;;;;85.45;38.17;;;;;;;;;;5109164;27;20555;-82
2021/10/30 01:36:22;;;;;;;84.25;39.85;;;;;;;;;;5108990;28;20083;-82
2021/10/30 01:38:50;;;;;;;78.07;36.60;;;;;;;;;;5111478;28;20134;-84
2021/10/30 01:41:18;;;;;;;77.45;37.03;;;;;;;;;;5111807;28;20043;-83
2021/10/30 01:43:45;;;;;;;82.90;39.20;;;;;;;;;;5112050;27;20108;-83
2021/10/30 01:46:12;;;;;;;78.97;38.28;;;;;;;;;;5117928;28;20082;-83
2021/10/30 01:48:40;;;;;;;80.80;39.28;;;;;;;;;;5101647;28;20126;-83
2021/10/30 01:51:07;;;;;;;78.80;39.45;;;;;;;;;;5119708;28;20467;-83
2021/10/30 01:53:35;;;;;;;83.63;37.63;;;;;;;;;;5130821;28;20169;-83
2021/10/30 01:56:16;;;;;;;89.43;38.58;;;;;;;;;;5116221;28;20059;-77
2021/10/30 01:58:43;;;;;;;85.05;37.22;;;;;;;;;;5102975;28;20136;-77
2021/10/30 02:01:11;;;;;;;86.32;38.70;;;;;;;;;;5096675;28;20130;-77
2021/10/30 02:03:38;;;;;;;91.50;38.67;;;;;;;;;;5097599;28;20051;-77
2021/10/30 02:06:06;;;;;;;89.65;40.72;;;;;;;;;;5111276;28;20126;-77
2021/10/30 02:08:33;;;;;;;81.60;38.72;;;;;;;;;;5106802;28;20047;-77
2021/10/30 02:11:01;;;;;;;84.32;38.88;;;;;;;;;;5119429;28;20067;-77
2021/10/30 02:13:29;;;;;;;87.20;38.95;;;;;;;;;;5104634;28;20055;-77
2021/10/30 02:15:56;;;;;;;85.45;38.20;;;;;;;;;;5093729;28;20048;-77
2021/10/30 02:18:23;;;;;;;83.00;38.55;;;;;;;;;;5131623;27;20097;-77
2021/10/30 02:20:50;;;;;;;89.88;38.00;;;;;;;;;;5094262;28;20119;-77
2021/10/30 02:23:19;;;;;;;81.25;35.80;;;;;;;;;;5109717;28;20097;-78
2021/10/30 02:25:46;;;;;;;90.03;37.90;;;;;;;;;;5111048;28;20043;-78
2021/10/30 02:28:13;;;;;;;86.88;38.35;;;;;;;;;;5099322;28;20051;-77
2021/10/30 02:30:40;;;;;;;78.28;35.70;;;;;;;;;;5102569;28;20448;-78
2021/10/30 02:33:07;;;;;;;89.07;37.65;;;;;;;;;;5121368;28;20135;-78
2021/10/30 02:35:34;;;;;;;82.10;37.17;;;;;;;;;;5102274;28;20580;-78
2021/10/30 02:38:02;;;;;;;87.15;38.83;;;;;;;;;;5130632;27;20082;-77
2021/10/30 02:40:29;;;;;;;80.38;37.22;;;;;;;;;;5126606;27;20079;-78
2021/10/30 02:42:56;;;;;;;80.03;36.95;;;;;;;;;;5086879;28;20074;-77
2021/10/30 02:45:23;;;;;;;84.90;36.45;;;;;;;;;;5104657;28;20142;-78
2021/10/30 02:47:52;;;;;;;85.45;38.95;;;;;;;;;;5095315;28;20050;-78
2021/10/30 02:50:19;;;;;;;84.28;36.92;;;;;;;;;;5113820;28;20127;-78
2021/10/30 02:52:47;;;;;;;81.38;35.65;;;;;;;;;;5087349;28;20154;-83
2021/10/30 02:55:14;;;;;;;76.72;36.47;;;;;;;;;;5118398;27;20503;-78
2021/10/30 02:57:48;;;;;;;88.00;39.65;;;;;;;;;;5111286;27;20394;-83
2021/10/30 03:00:15;;;;;;;83.68;37.28;;;;;;;;;;5122606;27;20138;-83
2021/10/30 03:02:42;;;;;;;90.90;39.75;;;;;;;;;;5131845;27;20119;-83
2021/10/30 03:05:10;;;;;;;84.38;36.80;;;;;;;;;;5118932;27;20043;-83
2021/10/30 03:07:38;;;;;;;78.05;36.00;;;;;;;;;;5126652;27;20499;-83
2021/10/30 03:10:06;;;;;;;88.30;38.88;;;;;;;;;;5118057;27;20754;-83
2021/10/30 03:12:33;;;;;;;88.68;38.25;;;;;;;;;;5096433;28;20548;-83
2021/10/30 03:15:01;;;;;;;78.18;35.90;;;;;;;;;;5122115;27;20053;-83
2021/10/30 03:17:28;;;;;;;79.43;36.88;;;;;;;;;;5126206;27;20122;-83
2021/10/30 03:19:55;;;;;;;85.68;38.72;;;;;;;;;;5100769;27;20126;-83
2021/10/30 03:22:22;;;;;;;87.30;36.72;;;;;;;;;;5116160;27;20123;-83
2021/10/30 03:24:51;;;;;;;83.78;37.17;;;;;;;;;;5109408;27;20377;-83
2021/10/30 03:27:18;;;;;;;74.55;36.25;;;;;;;;;;5134194;27;20618;-82
2021/10/30 03:29:46;;;;;;;84.68;38.85;;;;;;;;;;5109677;28;20131;-82
2021/10/30 03:32:14;;;;;;;87.45;37.00;;;;;;;;;;5122714;27;20100;-83
2021/10/30 03:34:41;;;;;;;84.70;38.05;;;;;;;;;;5100795;27;20106;-84
2021/10/30 03:37:08;;;;;;;86.57;37.85;;;;;;;;;;5102698;28;20130;-82
2021/10/30 03:39:36;;;;;;;81.65;37.67;;;;;;;;;;5107034;27;20078;-82
2021/10/30 03:42:04;;;;;;;81.72;37.45;;;;;;;;;;5119145;27;20121;-82
2021/10/30 03:44:31;;;;;;;82.88;37.05;;;;;;;;;;5121604;27;20094;-82
2021/10/30 03:46:58;;;;;;;89.07;37.00;;;;;;;;;;5112131;27;20042;-82
2021/10/30 03:49:25;;;;;;;84.20;36.70;;;;;;;;;;5095028;28;20131;-82
2021/10/30 03:51:52;;;;;;;83.85;36.22;;;;;;;;;;5110102;27;20051;-83
2021/10/30 03:54:20;;;;;;;85.95;37.03;;;;;;;;;;5132038;27;20053;-83
2021/10/30 03:56:47;;;;;;;92.30;39.15;;;;;;;;;;5108624;27;20736;-83
2021/10/30 03:59:14;;;;;;;79.07;36.80;;;;;;;;;;5109696;27;20049;-83
2021/10/30 04:01:42;;;;;;;90.47;38.72;;;;;;;;;;5136231;27;20093;-83
2021/10/30 04:04:09;;;;;;;88.75;36.45;;;;;;;;;;5128000;27;20048;-83
2021/10/30 04:06:36;;;;;;;84.00;37.25;;;;;;;;;;5121701;27;20082;-83
2021/10/30 04:09:04;;;;;;;76.22;36.65;;;;;;;;;;5125218;27;20043;-82
2021/10/30 04:11:31;;;;;;;78.82;34.78;;;;;;;;;;5134023;27;20081;-83
2021/10/30 04:13:58;;;;;;;90.32;38.17;;;;;;;;;;5133601;27;20138;-83
2021/10/30 04:16:25;;;;;;;82.45;34.70;;;;;;;;;;5127444;27;20461;-83
2021/10/30 04:18:53;;;;;;;81.57;35.63;;;;;;;;;;5123792;27;20077;-83
2021/10/30 04:21:20;;;;;;;85.30;35.85;;;;;;;;;;5115297;27;20680;-82
2021/10/30 04:23:47;;;;;;;92.57;39.33;;;;;;;;;;5133216;27;20200;-83
2021/10/30 04:26:15;;;;;;;80.72;35.60;;;;;;;;;;5097499;28;20074;-82
2021/10/30 04:28:42;;;;;;;81.45;35.50;;;;;;;;;;5112648;28;20455;-82
2021/10/30 04:31:10;;;;;;;84.22;35.10;;;;;;;;;;5098121;28;20123;-83
2021/10/30 04:33:43;;;;;;;87.15;35.80;;;;;;;;;;5123446;27;20070;-82
2021/10/30 04:36:17;;;;;;;83.70;35.25;;;;;;;;;;5104206;28;20075;-82
2021/10/30 04:38:45;;;;;;;88.88;36.30;;;;;;;;;;5128644;27;20085;-82
2021/10/30 04:41:12;;;;;;;93.85;37.45;;;;;;;;;;5114414;27;20058;-82
2021/10/30 04:43:40;;;;;;;80.25;35.53;;;;;;;;;;5103030;27;20110;-82
2021/10/30 04:46:09;;;;;;;76.03;34.72;;;;;;;;;;5132523;27;20129;-82
2021/10/30 04:48:37;;;;;;;84.82;37.65;;;;;;;;;;5114867;27;20075;-82
2021/10/30 04:51:07;;;;;;;93.90;39.53;;;;;;;;;;5111701;27;20043;-82
2021/10/30 04:53:35;;;;;;;81.13;37.90;;;;;;;;;;5129998;27;20075;-82
2021/10/30 04:56:03;;;;;;;135.88;55.55;;;;;;;;;;5096014;27;20083;-83
2021/10/30 04:58:30;;;;;;;120.40;47.33;;;;;;;;;;5114581;27;20093;-83
2021/10/30 05:00:58;;;;;;;114.53;48.17;;;;;;;;;;5099378;27;20069;-83
2021/10/30 05:03:37;;;;;;;124.20;49.47;;;;;;;;;;5105940;27;20071;-84
2021/10/30 05:06:09;;;;;;;127.88;53.40;;;;;;;;;;5111409;27;20078;-83
2021/10/30 05:08:37;;;;;;;106.00;47.45;;;;;;;;;;5112148;27;20110;-83
2021/10/30 05:11:05;;;;;;;111.90;44.85;;;;;;;;;;5099358;28;20127;-83
2021/10/30 05:13:32;;;;;;;89.00;38.45;;;;;;;;;;5092979;28;20143;-83
2021/10/30 05:16:00;;;;;;;86.82;37.25;;;;;;;;;;5108162;27;20051;-84
2021/10/30 05:18:27;;;;;;;80.40;36.75;;;;;;;;;;5100812;27;20046;-83
2021/10/30 05:20:54;;;;;;;88.47;35.55;;;;;;;;;;5114236;27;20126;-83
2021/10/30 05:23:22;;;;;;;81.57;33.80;;;;;;;;;;5132439;27;20047;-83
2021/10/30 05:25:50;;;;;;;79.00;36.33;;;;;;;;;;5132884;27;20134;-83
2021/10/30 05:28:21;;;;;;;77.32;35.78;;;;;;;;;;5131828;27;20452;-84
2021/10/30 05:30:49;;;;;;;85.15;35.42;;;;;;;;;;5117126;27;20488;-84
2021/10/30 05:33:17;;;;;;;83.45;33.85;;;;;;;;;;5104852;27;20490;-83
2021/10/30 05:38:50;;;;;;;82.05;35.13;;;;;;;;;;5101951;28;20443;-77
2021/10/30 05:41:18;;;;;;;80.28;34.95;;;;;;;;;;5083687;28;20444;-77
2021/10/30 05:43:46;;;;;;;84.75;34.00;;;;;;;;;;5106332;28;20060;-77
2021/10/30 05:46:14;;;;;;;84.40;36.05;;;;;;;;;;5077507;28;20100;-77
2021/10/30 05:48:41;;;;;;;92.72;39.88;;;;;;;;;;5099662;28;20054;-77
2021/10/30 05:51:12;;;;;;;81.68;34.90;;;;;;;;;;5086713;28;20063;-78
2021/10/30 05:53:40;;;;;;;84.72;35.97;;;;;;;;;;5089074;28;20056;-78
2021/10/30 05:56:08;;;;;;;79.35;34.53;;;;;;;;;;5073703;28;20064;-77
2021/10/30 05:58:35;;;;;;;89.00;38.58;;;;;;;;;;5069148;28;20052;-77
2021/10/30 06:01:03;;;;;;;94.30;39.10;;;;;;;;;;5105663;28;20078;-77
2021/10/30 06:03:31;;;;;;;90.30;38.08;;;;;;;;;;5078067;28;20128;-77
2021/10/30 06:05:59;;;;;;;85.68;37.67;;;;;;;;;;5086137;28;20130;-77
2021/10/30 06:08:26;;;;;;;97.47;38.83;;;;;;;;;;5085988;28;20074;-77
2021/10/30 06:10:53;;;;;;;92.72;41.53;;;;;;;;;;5079019;28;20067;-77
2021/10/30 06:13:22;;;;;;;90.00;39.35;;;;;;;;;;5080763;28;20051;-77
2021/10/30 06:15:49;;;;;;;92.10;38.80;;;;;;;;;;5082781;28;20090;-77
2021/10/30 06:18:16;;;;;;;88.18;38.95;;;;;;;;;;5097568;28;20137;-77
2021/10/30 06:20:43;;;;;;;94.32;40.30;;;;;;;;;;5074390;28;20075;-77
2021/10/30 06:23:11;;;;;;;94.78;39.60;;;;;;;;;;5074944;28;20510;-77
2021/10/30 06:25:40;;;;;;;92.95;39.30;;;;;;;;;;5080501;28;20047;-82
2021/10/30 06:28:07;;;;;;;96.65;41.30;;;;;;;;;;5100871;28;20135;-82
2021/10/30 06:30:34;;;;;;;104.47;42.55;;;;;;;;;;5094861;28;20048;-82
2021/10/30 06:33:01;;;;;;;100.63;40.38;;;;;;;;;;5089415;28;20075;-77
2021/10/30 06:35:29;;;;;;;100.43;40.80;;;;;;;;;;5102053;28;20162;-77
2021/10/30 06:37:57;;;;;;;98.78;40.95;;;;;;;;;;5101849;28;20139;-78
2021/10/30 06:40:25;;;;;;;98.47;42.95;;;;;;;;;;5084006;28;20135;-77
2021/10/30 06:45:35;;;;;;;107.18;41.97;;;;;;;;;;5099639;28;20113;-77
2021/10/30 06:48:03;;;;;;;94.80;40.38;;;;;;;;;;5081267;28;20134;-77
2021/10/30 06:50:31;;;;;;;93.60;40.70;;;;;;;;;;5080383;28;20883;-77
2021/10/30 06:52:58;;;;;;;111.47;42.88;;;;;;;;;;5082414;28;20135;-77
2021/10/30 06:55:26;;;;;;;95.13;43.40;;;;;;;;;;5099472;28;20052;-77
2021/10/30 06:57:53;;;;;;;93.97;41.85;;;;;;;;;;5083681;28;20399;-77
2021/10/30 07:00:20;;;;;;;101.20;43.40;;;;;;;;;;5099966;28;20535;-77
2021/10/30 07:02:51;;;;;;;104.30;43.90;;;;;;;;;;5088703;28;20135;-77
2021/10/30 07:05:20;;;;;;;102.10;42.58;;;;;;;;;;5098346;28;20479;-76
2021/10/30 07:07:48;;;;;;;103.85;43.25;;;;;;;;;;5085719;28;20084;-78
2021/10/30 07:10:15;;;;;;;111.78;46.00;;;;;;;;;;5109945;28;20079;-77
2021/10/30 07:12:55;;;;;;;114.70;47.00;;;;;;;;;;5088757;28;20122;-77
2021/10/30 07:15:22;;;;;;;104.50;45.63;;;;;;;;;;5104089;28;20097;-83
2021/10/30 07:17:50;;;;;;;106.32;45.08;;;;;;;;;;5100059;28;20044;-84
2021/10/30 07:20:17;;;;;;;115.28;46.60;;;;;;;;;;5078242;28;20054;-83
2021/10/30 07:22:45;;;;;;;106.90;46.38;;;;;;;;;;5075038;28;20132;-84
2021/10/30 07:25:14;;;;;;;107.15;46.05;;;;;;;;;;5106413;28;20087;-84
2021/10/30 07:27:42;;;;;;;105.45;45.42;;;;;;;;;;5110014;28;20097;-86
2021/10/30 07:30:10;;;;;;;112.47;45.30;;;;;;;;;;5112296;28;20496;-85
2021/10/30 07:32:38;;;;;;;108.32;43.05;;;;;;;;;;5091523;28;20079;-85
2021/10/30 07:35:05;;;;;;;107.28;44.60;;;;;;;;;;5108222;28;20139;-88
2021/10/30 07:37:33;;;;;;;103.97;46.05;;;;;;;;;;5105048;28;20444;-90
2021/10/30 07:40:00;;;;;;;97.22;45.10;;;;;;;;;;5082981;28;20117;-86
2021/10/30 07:42:28;;;;;;;98.72;44.33;;;;;;;;;;5096564;28;20501;-87
2021/10/30 07:44:55;;;;;;;94.10;43.63;;;;;;;;;;5095991;28;20134;-86
2021/10/30 07:47:22;;;;;;;95.78;44.88;;;;;;;;;;5095693;28;20126;-85
2021/10/30 07:49:49;;;;;;;94.32;43.42;;;;;;;;;;5102410;28;20139;-85
2021/10/30 07:52:17;;;;;;;98.95;43.85;;;;;;;;;;5094774;28;20089;-85
2021/10/30 07:54:54;;;;;;;88.43;42.83;;;;;;;;;;5106037;28;20044;-85
2021/10/30 07:57:21;;;;;;;91.15;41.33;;;;;;;;;;5083478;28;20086;-85
2021/10/30 07:59:52;;;;;;;79.60;39.00;;;;;;;;;;5088864;28;20055;-87
2021/10/30 08:02:19;;;;;;;91.38;40.58;;;;;;;;;;5095740;28;20126;-85
2021/10/30 08:04:46;;;;;;;76.78;39.03;;;;;;;;;;5078223;28;20094;-85
2021/10/30 08:07:13;;;;;;;99.15;42.22;;;;;;;;;;5084176;28;20078;-86
2021/10/30 08:09:41;;;;;;;85.72;39.80;;;;;;;;;;5094774;28;20073;-83
2021/10/30 08:12:09;;;;;;;90.80;40.00;;;;;;;;;;5101473;28;20051;-83
2021/10/30 08:14:36;;;;;;;86.18;39.40;;;;;;;;;;5091155;28;20075;-83
2021/10/30 08:17:04;;;;;;;90.18;40.70;;;;;;;;;;5090729;28;20716;-84
2021/10/30 08:19:31;;;;;;;84.82;37.72;;;;;;;;;;5101495;28;20083;-84
2021/10/30 08:21:58;;;;;;;83.18;37.35;;;;;;;;;;5106490;28;20453;-83
2021/10/30 08:24:25;;;;;;;81.85;38.72;;;10.20;99.90;;;;;;5106525;28;20082;-83
2021/10/30 08:26:52;;;;;;;87.10;38.60;;;10.50;99.90;;;;;;5095803;28;20112;-85
2021/10/30 08:29:22;;;;;;;78.57;37.30;;;;;;;;;;5089273;28;20040;-83
2021/10/30 08:31:52;;;;;;;74.22;36.88;;;;;;;;;;5092116;28;20044;-83
2021/10/30 08:34:20;;;;;;;73.60;37.65;;;;;;;;;;5104326;28;20099;-85
2021/10/30 08:36:51;;;;;;;74.45;38.08;;;;;;;;;;5105790;28;20075;-84
2021/10/30 08:39:20;;;;;;;79.75;36.80;;;;;;;;;;5092237;28;20083;-82
2021/10/30 08:41:48;;;;;;;72.63;36.25;;;;;;;;;;5109975;28;20051;-83
2021/10/30 08:44:15;;;;;;;69.20;36.63;;;;;;;;;;5087362;28;20138;-84
2021/10/30 08:46:47;;;;;;;74.18;36.47;;;;;;;;;;5089805;28;20056;-84
2021/10/30 08:49:16;;;;;;;74.70;33.75;;;;;;;;;;5104750;28;20545;-84
2021/10/30 08:51:52;;;;;;;65.82;32.08;;;;;;;;;;5085322;28;20079;-85
2021/10/30 08:54:20;;;;;;;61.55;31.45;;;;;;;;;;5093603;28;20652;-82
2021/10/30 08:56:47;;;;;;;63.35;32.10;;;;;;;;;;5112378;28;20804;-85
2021/10/30 08:59:15;;;;;;;57.58;31.08;;;;;;;;;;5113592;28;20750;-86
2021/10/30 09:01:44;;;;;;;66.68;32.97;;;;;;;;;;5109721;28;20171;-83
2021/10/30 09:04:12;;;;;;;61.65;29.85;;;;;;;;;;5088269;28;20060;-84
2021/10/30 09:07:04;;;;;;;56.20;29.35;;;;;;;;;;5084339;28;20439;-85
2021/10/30 09:09:32;;;;;;;53.20;28.90;;;;;;;;;;5077675;28;20048;-85
2021/10/30 09:12:00;;;;;;;55.10;31.40;;;;;;;;;;5104648;28;20777;-85
2021/10/30 09:14:29;;;;;;;53.20;29.58;;;;;;;;;;5083576;28;20097;-86
2021/10/30 09:17:15;;;;;;;52.70;28.92;;;;;;;;;;5110343;28;20138;-83
2021/10/30 09:19:47;;;;;;;56.65;28.23;;;;;;;;;;5093458;28;20051;-84
2021/10/30 09:22:15;;;;;;;53.47;26.83;;;;;;;;;;5093679;28;20483;-84
2021/10/30 09:24:53;;;;;;;48.13;25.85;;;;;;;;;;5086883;28;20078;-84
2021/10/30 09:27:40;;;;;;;53.60;28.08;;;;;;;;;;5110315;28;20855;-85
2021/10/30 09:30:07;;;;;;;50.63;26.45;;;;;;;;;;5093498;28;20078;-84
2021/10/30 09:32:36;;;;;;;47.53;25.50;;;;;;;;;;5085361;28;20065;-85
2021/10/30 09:35:04;;;;;;;48.03;26.20;;;;;;;;;;5091512;28;20079;-84
2021/10/30 09:37:35;;;;;;;48.78;25.90;;;;;;;;;;5087444;28;20472;-84
2021/10/30 09:40:22;;;;;;;44.22;25.52;;;;;;;;;;5080681;28;20275;-79
2021/10/30 09:42:50;;;;;;;47.90;25.70;;;;;;;;;;5081167;28;20127;-78
2021/10/30 09:45:18;;;;;;;48.20;25.63;;;;;;;;;;5101058;28;20134;-78
2021/10/30 09:47:57;;;;;;;44.47;24.40;;;;;;;;;;5081131;28;20135;-79
2021/10/30 09:50:29;;;;;;;48.90;27.95;;;;;;;;;;5081554;28;20147;-79
2021/10/30 09:52:56;;;;;;;56.67;27.50;;;;;;;;;;5102042;28;20071;-79
2021/10/30 09:55:27;;;;;;;49.65;27.25;;;;;;;;;;5097234;28;20130;-79
2021/10/30 09:57:58;;;;;;;51.60;30.38;;;;;;;;;;5097776;28;20047;-79
2021/10/30 10:00:32;;;;;;;50.10;27.23;;;;;;;;;;5117851;28;20427;-85
2021/10/30 10:03:02;;;;;;;43.63;23.77;;;;;;;;;;5083027;28;20048;-79
2021/10/30 10:05:31;;;;;;;46.85;22.92;;;;;;;;;;5085509;28;20127;-79
2021/10/30 10:07:59;;;;;;;40.40;22.60;;;;;;;;;;5087241;28;20079;-77
2021/10/30 10:10:26;;;;;;;41.53;22.83;;;;;;;;;;5108512;28;20047;-79
2021/10/30 10:12:54;;;;;;;32.33;20.42;;;;;;;;;;5111323;28;20083;-80
2021/10/30 10:15:21;;;;;;;41.25;22.92;;;;;;;;;;5085861;28;20047;-79
2021/10/30 10:17:49;;;;;;;43.88;22.65;;;;;;;;;;5083813;28;20072;-79
2021/10/30 10:20:16;;;;;;;42.22;22.83;;;;;;;;;;5085447;28;20098;-79
2021/10/30 10:22:43;;;;;;;41.15;23.17;;;;;;;;;;5084972;28;20492;-79
2021/10/30 10:25:24;;;;;;;34.47;20.92;;;;;;;;;;5102402;28;20631;-79
2021/10/30 10:27:51;;;;;;;34.13;19.80;;;;;;;;;;5103255;28;20562;-79
2021/10/30 10:30:18;;;;;;;37.22;21.30;;;;;;;;;;5079583;28;20054;-80
2021/10/30 10:32:46;;;;;;;35.83;19.67;;;;;;;;;;5083018;28;20131;-79
2021/10/30 10:35:17;;;;;;;46.20;19.83;;;;;;;;;;5085738;28;20515;-79
2021/10/30 10:37:51;;;;;;;39.65;20.27;;;;;;;;;;5081722;28;20131;-79
2021/10/30 10:40:30;;;;;;;31.45;18.33;;;;;;;;;;5087313;28;20052;-79
2021/10/30 10:42:58;;;;;;;32.92;17.83;;;16.00;99.90;;;;;;5098633;28;20044;-79
2021/10/30 10:45:48;;;;;;;31.40;17.83;;;16.60;99.90;;;;;;5081815;28;20058;-80
2021/10/30 10:48:24;;;;;;;30.60;17.58;;;17.00;99.90;;;;;;5081691;28;20075;-79
2021/10/30 10:50:52;;;;;;;28.30;18.48;;;17.20;99.90;;;;;;5082596;28;20135;-79
2021/10/30 10:53:19;;;;;;;32.70;18.13;;;17.50;99.90;;;;;;5087802;28;20062;-79
2021/10/30 10:55:54;;;;;;;29.38;16.83;;;17.40;99.90;;;;;;5078718;28;20139;-79
2021/10/30 10:58:21;;;;;;;31.77;17.20;;;17.40;99.90;;;;;;5081056;28;20044;-79
2021/10/30 11:01:07;;;;;;;29.40;17.50;;;17.80;99.90;;;;;;5103690;28;20075;-79
2021/10/30 11:03:43;;;;;;;34.67;18.25;;;18.40;99.90;;;;;;5102257;28;20648;-74
2021/10/30 11:06:11;;;;;;;31.02;16.80;;;18.30;99.90;;;;;;5097044;28;20052;-80
2021/10/30 11:08:44;;;;;;;34.88;17.33;;;18.10;99.90;;;;;;5080886;28;20680;-79
2021/10/30 11:11:25;;;;;;;30.25;17.08;;;17.80;99.90;;;;;;5084137;28;20400;-79
2021/10/30 11:13:54;;;;;;;31.08;17.10;;;17.30;99.90;;;;;;5079395;28;20530;-81
2021/10/30 11:16:28;;;;;;;26.10;17.13;;;16.90;99.90;;;;;;5084985;28;20044;-91
2021/10/30 11:19:04;;;;;;;32.00;17.92;;;16.60;99.90;;;;;;5086084;28;20090;-87
2021/10/30 11:21:34;;;;;;;33.13;19.13;;;16.50;99.90;;;;;;5102801;28;20058;-85
2021/10/30 11:24:19;;;;;;;30.85;17.75;;;16.40;99.90;;;;;;5086261;28;20082;-85
2021/10/30 11:30:43;;;;;;;37.97;20.23;;;16.30;99.90;;;;;;5095549;28;20052;-79
2021/10/30 11:33:33;;;;;;;32.72;18.73;;;16.10;99.90;;;;;;5083332;28;20734;-79
2021/10/30 11:36:07;;;;;;;30.88;18.45;;;16.00;99.90;;;;;;5080474;28;20044;-79
2021/10/30 11:38:58;;;;;;;39.25;20.42;;;16.10;99.90;;;;;;5078428;28;20063;-79
2021/10/30 11:41:29;;;;;;;30.58;18.40;;;16.10;99.90;;;;;;5083461;28;20128;-79
2021/10/30 11:44:09;;;;;;;30.70;19.20;;;16.10;99.90;;;;;;5092577;28;20056;-80
2021/10/30 11:46:45;;;;;;;41.00;20.50;;;16.20;99.90;;;;;;5085936;28;20055;-78
2021/10/30 11:49:34;;;;;;;38.35;19.98;;;16.30;99.90;;;;;;5084833;28;20047;-79
2021/10/30 11:52:03;;;;;;;45.95;20.17;;;16.60;99.90;;;;;;5078877;28;20073;-79
2021/10/30 11:54:31;;;;;;;37.58;20.42;;;16.80;99.90;;;;;;5078049;28;20075;-77
2021/10/30 11:57:06;;;;;;;37.08;19.88;;;16.70;99.90;;;;;;5097945;28;20056;-77
2021/10/30 11:59:34;;;;;;;34.28;20.02;;;16.60;99.90;;;;;;5098853;28;20151;-77
2021/10/30 12:02:01;;;;;;;39.30;20.70;;;16.40;99.90;;;;;;5079531;28;20120;-77
2021/10/30 12:04:35;;;;;;;45.22;22.35;;;16.30;99.90;;;;;;5097098;28;20131;-77
2021/10/30 12:07:14;;;;;;;40.78;21.20;;;16.30;99.90;;;;;;5077404;28;20079;-77
2021/10/30 12:09:46;;;;;;;35.95;21.48;;;16.30;99.90;;;;;;5081993;28;20067;-77
2021/10/30 12:12:19;;;;;;;34.45;20.98;;;16.30;99.90;;;;;;5104242;28;20051;-77
2021/10/30 12:14:48;;;;;;;38.53;21.02;;;16.30;99.90;;;;;;5085818;28;20907;-77
2021/10/30 12:17:21;;;;;;;35.92;20.00;;;16.30;99.90;;;;;;5078252;28;20058;-77
2021/10/30 12:20:02;;;;;;;34.47;19.55;;;16.40;99.90;;;;;;5099713;28;20044;-76
2021/10/30 12:22:31;;;;;;;33.03;19.27;;;16.20;99.90;;;;;;5098511;28;20060;-76
2021/10/30 12:25:06;;;;;;;34.58;20.10;;;16.20;99.90;;;;;;5103975;28;20442;-76
2021/10/30 12:27:48;;;;;;;35.43;19.43;;;16.10;99.90;;;;;;5101856;28;20559;-76
2021/10/30 12:30:20;;;;;;;36.70;20.25;;;16.10;99.90;;;;;;5100453;28;20297;-76
2021/10/30 12:32:48;;;;;;;34.17;20.35;;;16.10;99.90;;;;;;5097276;28;20051;-76
2021/10/30 12:35:20;;;;;;;33.97;19.58;;;16.10;99.90;;;;;;5077954;28;20058;-76
2021/10/30 12:37:47;;;;;;;37.17;20.50;;;16.00;99.90;;;;;;5082411;28;20048;-76
2021/10/30 12:40:36;;;;;;;38.92;22.50;;;16.10;99.90;;;;;;5085217;28;20044;-76
2021/10/30 12:43:08;;;;;;;36.60;21.13;;;16.10;99.90;;;;;;5098460;28;20135;-76
2021/10/30 12:45:56;;;;;;;33.72;20.48;;;15.90;99.90;;;;;;5082594;28;20432;-76
2021/10/30 12:48:44;;;;;;;33.22;20.55;;;15.90;99.90;;;;;;5077984;28;20473;-76
2021/10/30 12:51:13;;;;;;;35.15;20.85;;;15.70;99.90;;;;;;5091285;28;20079;-76
2021/10/30 12:53:40;;;;;;;36.17;19.77;;;15.70;99.90;;;;;;5086357;28;20044;-76
2021/10/30 12:56:10;;;;;;;34.85;20.92;;;15.70;99.90;;;;;;5098885;28;20172;-76
2021/10/30 12:58:41;;;;;;;41.50;21.17;;;15.70;99.90;;;;;;5079041;28;20050;-76
2021/10/30 13:01:27;;;;;;;31.55;20.45;;;15.60;99.90;;;;;;5082987;28;20046;-76
2021/10/30 13:04:02;;;;;;;38.75;22.10;;;15.50;99.90;;;;;;5079015;28;20048;-76
2021/10/30 13:06:30;;;;;;;38.13;22.05;;;15.50;99.90;;;;;;5079153;28;20048;-76
2021/10/30 13:09:06;;;;;;;38.95;21.15;;;15.60;99.90;;;;;;5097648;28;20548;-76
2021/10/30 13:11:33;;;;;;;;;;;15.50;99.90;;;;;;5079005;28;20468;-76
2021/10/30 13:14:01;;;;;;;36.55;22.05;;;15.50;99.90;;;;;;5070127;28;19930;-76
2021/10/30 13:16:28;;;;;;;34.60;20.02;;;15.40;99.90;;;;;;5097471;28;20051;-76
2021/10/30 13:18:55;;;;;;;44.78;22.75;;;15.40;99.90;;;;;;5079362;28;20084;-76
2021/10/30 13:21:24;;;;;;;38.03;21.30;;;15.50;99.90;;;;;;5100588;28;20051;-76
2021/10/30 13:23:53;;;;;;;34.63;20.02;;;15.40;99.90;;;;;;5106196;28;20047;-76
2021/10/30 13:26:21;;;;;;;35.45;20.40;;;15.30;99.90;;;;;;5076863;28;20064;-76
2021/10/30 13:28:50;;;;;;;34.53;19.55;;;15.30;99.90;;;;;;5076737;28;20574;-76
2021/10/30 13:31:22;;;;;;;44.85;20.92;;;15.30;99.90;;;;;;5105808;28;20055;-74
2021/10/30 13:33:52;;;;;;;34.33;20.70;;;15.20;99.90;;;;;;5105621;28;20048;-75
2021/10/30 13:36:25;;;;;;;36.38;20.83;;;15.20;99.90;;;;;;5081013;28;20048;-75
2021/10/30 13:38:54;;;;;;;35.63;19.73;;;15.20;99.90;;;;;;5097941;28;20047;-75
2021/10/30 13:41:26;;;;;;;35.30;19.92;;;15.20;99.90;;;;;;5093635;28;20058;-75
2021/10/30 13:43:55;;;;;;;41.83;23.15;;;15.10;99.90;;;;;;5094010;28;20134;-75
2021/10/30 13:46:22;;;;;;;37.85;22.02;;;15.10;99.90;;;;;;5081025;28;20108;-75
2021/10/30 13:48:52;;;;;;;34.47;20.52;;;15.00;99.90;;;;;;5079774;28;20746;-75
2021/10/30 13:51:20;;;;;;;37.67;21.50;;;15.00;99.90;;;;;;5100600;28;20789;-75
2021/10/30 13:53:48;;;;;;;37.40;22.02;;;15.10;99.90;;;;;;5104387;28;20100;-76
2021/10/30 13:56:15;;;;;;;41.28;22.67;;;15.10;99.90;;;;;;5097554;28;20131;-75
2021/10/30 13:58:42;;;;;;;42.20;22.15;;;15.00;99.90;;;;;;5096105;28;20739;-75
2021/10/30 14:01:10;;;;;;;47.20;22.92;;;15.00;99.90;;;;;;5105352;28;20500;-75
2021/10/30 14:03:38;;;;;;;43.25;22.45;;;15.00;99.90;;;;;;5087134;28;20052;-76
2021/10/30 14:06:06;;;;;;;37.25;22.45;;;14.90;99.90;;;;;;5098682;28;20148;-76
2021/10/30 14:08:33;;;;;;;41.20;23.42;;;14.80;99.90;;;;;;5095107;28;20127;-75